Time;durP1;ratioP1;P1;durP2;ratioP2;P2;SDS_P1;SDS_P2;PMS_P1;PMS_P2;Temp;Humidity;BMP_temperature;BMP_pressure;BME280_temperature;BME280_humidity;BME280_pressure;Samples;Min_cycle;Max_cycle;Signal;HPM_P1;HPM_P2
2023/01/30 00:00:32;;;;;;;15.68;8.05;;;3.10;96.20;;;;;;4955077;28;20038;-69
2023/01/30 00:02:59;;;;;;;14.90;8.20;;;3.00;96.40;;;;;;4955360;28;20039;-69
2023/01/30 00:05:24;;;;;;;16.08;8.10;;;2.90;96.50;;;;;;4954106;28;20925;-68
2023/01/30 00:07:50;;;;;;;16.63;7.95;;;2.80;96.90;;;;;;4959006;28;20043;-69
2023/01/30 00:10:16;;;;;;;17.98;8.52;;;2.80;96.90;;;;;;4953278;28;20077;-70
2023/01/30 00:12:42;;;;;;;17.88;8.82;;;2.70;96.80;;;;;;4959099;28;20069;-69
2023/01/30 00:15:08;;;;;;;17.70;8.45;;;2.60;97.30;;;;;;4956133;28;20582;-69
2023/01/30 00:17:34;;;;;;;17.35;8.98;;;2.60;97.40;;;;;;4960718;28;20022;-68
2023/01/30 00:20:00;;;;;;;17.00;8.55;;;2.70;97.40;;;;;;4956973;28;20569;-68
2023/01/30 00:22:26;;;;;;;16.48;8.50;;;2.60;97.30;;;;;;4954762;28;20042;-69
2023/01/30 00:24:51;;;;;;;18.15;8.48;;;2.70;97.40;;;;;;4953538;28;20057;-69
2023/01/30 00:27:17;;;;;;;18.25;8.90;;;2.70;97.60;;;;;;4957867;28;20034;-69
2023/01/30 00:29:43;;;;;;;15.23;7.45;;;2.60;97.60;;;;;;4958280;28;20057;-69
2023/01/30 00:32:09;;;;;;;15.73;8.10;;;2.70;97.40;;;;;;4951669;28;20470;-69
2023/01/30 00:34:34;;;;;;;16.40;8.50;;;2.70;97.40;;;;;;4946108;28;20035;-68
2023/01/30 00:37:00;;;;;;;17.23;8.50;;;2.60;97.40;;;;;;4955824;28;20053;-69
2023/01/30 00:39:26;;;;;;;16.55;8.68;;;2.50;97.90;;;;;;4946862;28;20039;-68
2023/01/30 00:47:22;;;;;;;16.30;7.95;;;2.50;98.00;;;;;;4951337;28;20450;-69
2023/01/30 00:49:48;;;;;;;15.95;7.82;;;2.50;97.90;;;;;;4949025;28;20033;-69
2023/01/30 00:52:15;;;;;;;15.82;8.35;;;2.50;97.90;;;;;;4954015;28;20073;-69
2023/01/30 00:54:41;;;;;;;17.88;8.55;;;2.50;97.90;;;;;;4955642;28;20035;-70
2023/01/30 00:57:07;;;;;;;16.98;8.82;;;2.50;98.00;;;;;;4956330;28;20090;-69
2023/01/30 00:59:32;;;;;;;17.30;8.90;;;2.60;97.70;;;;;;4958962;28;20042;-69
2023/01/30 01:01:58;;;;;;;15.38;8.65;;;2.60;97.80;;;;;;4952777;28;20027;-69
2023/01/30 01:04:24;;;;;;;18.30;8.68;;;2.70;97.50;;;;;;4954679;28;20146;-70
2023/01/30 01:06:50;;;;;;;18.25;9.77;;;2.60;97.40;;;;;;4956784;28;20137;-69
2023/01/30 01:09:16;;;;;;;17.50;8.40;;;2.70;97.30;;;;;;4953680;28;20672;-69
2023/01/30 01:11:42;;;;;;;17.23;8.30;;;2.60;97.70;;;;;;4949451;28;20035;-69
2023/01/30 01:14:08;;;;;;;18.98;8.85;;;2.60;97.50;;;;;;4951381;28;20066;-69
2023/01/30 01:16:34;;;;;;;18.75;9.60;;;2.70;97.50;;;;;;4957827;28;20093;-69
2023/01/30 01:19:00;;;;;;;16.20;8.52;;;2.60;97.40;;;;;;4955286;28;20029;-70
2023/01/30 01:21:26;;;;;;;16.77;9.25;;;2.50;97.80;;;;;;4957987;28;20114;-69
2023/01/30 01:23:55;;;;;;;19.50;9.20;;;2.40;97.60;;;;;;4957449;28;20031;-70
2023/01/30 01:26:21;;;;;;;17.70;10.38;;;2.60;98.00;;;;;;4951010;28;20043;-70
2023/01/30 01:28:47;;;;;;;19.15;9.55;;;2.60;97.50;;;;;;4950147;28;20060;-69
2023/01/30 01:31:15;;;;;;;18.88;10.32;;;2.50;97.50;;;;;;4957472;28;20030;-69
2023/01/30 01:33:41;;;;;;;20.45;9.90;;;2.40;97.70;;;;;;4938817;28;20045;-69
2023/01/30 01:36:07;;;;;;;20.65;9.75;;;2.30;98.30;;;;;;4956399;28;20042;-70
2023/01/30 01:38:33;;;;;;;20.70;9.82;;;2.40;98.20;;;;;;4947738;28;20229;-69
2023/01/30 01:41:04;;;;;;;17.60;9.68;;;2.50;98.10;;;;;;4957192;28;20031;-69
2023/01/30 01:43:34;;;;;;;18.38;10.20;;;2.60;97.90;;;;;;4958227;28;20046;-69
2023/01/30 01:46:12;;;;;;;17.73;9.05;;;2.50;97.60;;;;;;4955315;28;20170;-70
2023/01/30 01:48:43;;;;;;;19.30;9.70;;;2.50;98.00;;;;;;4938793;28;20063;-69
2023/01/30 01:51:34;;;;;;;19.25;10.30;;;2.60;97.80;;;;;;4951053;28;20056;-70
2023/01/30 01:54:25;;;;;;;19.65;9.35;;;2.70;97.70;;;;;;4956037;28;20050;-69
2023/01/30 01:56:52;;;;;;;20.10;9.95;;;2.80;97.40;;;;;;4946151;28;20042;-69
2023/01/30 01:59:29;;;;;;;21.27;10.38;;;2.80;97.50;;;;;;4937626;28;20062;-69
2023/01/30 02:01:59;;;;;;;18.80;9.60;;;2.80;97.30;;;;;;4954968;28;20027;-70
2023/01/30 02:07:11;;;;;;;18.40;9.93;;;2.90;97.30;;;;;;4956174;28;20105;-70
2023/01/30 02:09:36;;;;;;;21.55;10.63;;;2.90;97.40;;;;;;4953292;28;20030;-70
2023/01/30 02:12:04;;;;;;;18.60;9.57;;;2.90;97.00;;;;;;4953109;28;20458;-69
2023/01/30 02:14:32;;;;;;;19.60;9.75;;;2.70;97.50;;;;;;4952148;28;20039;-69
2023/01/30 02:16:58;;;;;;;17.95;9.68;;;2.60;98.00;;;;;;4955209;28;20027;-69
2023/01/30 02:19:42;;;;;;;18.95;9.50;;;2.70;98.20;;;;;;4952127;28;20806;-70
2023/01/30 02:22:08;;;;;;;18.63;9.40;;;2.80;97.90;;;;;;4936267;28;20034;-69
2023/01/30 02:24:34;;;;;;;18.30;8.80;;;2.80;97.80;;;;;;4954269;28;20030;-69
2023/01/30 02:27:06;;;;;;;19.33;9.50;;;3.00;97.70;;;;;;4955146;28;20484;-69
2023/01/30 02:29:37;;;;;;;18.50;9.10;;;3.10;97.60;;;;;;4938069;28;20061;-68
2023/01/30 02:32:15;;;;;;;20.27;9.48;;;3.00;97.50;;;;;;4944411;28;20034;-68
2023/01/30 02:34:58;;;;;;;18.20;9.93;;;2.90;98.30;;;;;;4951884;28;20039;-68
2023/01/30 02:38:05;;;;;;;18.17;9.65;;;2.80;99.30;;;;;;4936387;28;20035;-68
2023/01/30 02:40:31;;;;;;;;;;;2.70;99.80;;;;;;4922654;28;20062;-69
2023/01/30 02:43:12;;;;;;;18.90;9.40;;;2.80;99.80;;;;;;4952634;28;20009;-69
2023/01/30 02:45:46;;;;;;;21.80;10.85;;;2.90;99.40;;;;;;4946501;28;20031;-69
2023/01/30 02:48:18;;;;;;;21.73;10.13;;;3.10;99.10;;;;;;4957345;28;20486;-68
2023/01/30 02:51:03;;;;;;;20.58;9.80;;;3.20;98.70;;;;;;4954311;28;20042;-69
2023/01/30 02:53:33;;;;;;;23.35;10.00;;;3.30;98.60;;;;;;4951999;28;20073;-68
2023/01/30 02:56:00;;;;;;;19.98;9.68;;;3.30;98.30;;;;;;4936757;28;20031;-69
2023/01/30 02:58:33;;;;;;;23.85;10.57;;;3.20;98.50;;;;;;4950486;28;20046;-68
2023/01/30 03:01:05;;;;;;;20.55;10.30;;;3.10;98.90;;;;;;4954741;28;20026;-69
2023/01/30 03:03:31;;;;;;;18.48;10.00;;;3.20;99.10;;;;;;4933662;28;20533;-68
2023/01/30 03:06:45;;;;;;;17.80;9.82;;;3.30;98.60;;;;;;4942708;28;20455;-69
2023/01/30 03:09:35;;;;;;;20.02;9.88;;;3.20;98.70;;;;;;4903235;29;20035;-67
2023/01/30 03:12:09;;;;;;;19.02;9.30;;;3.30;98.50;;;;;;4955048;28;20047;-70
2023/01/30 03:14:46;;;;;;;20.00;10.25;;;3.10;99.10;;;;;;4950912;28;20058;-68
2023/01/30 03:17:13;;;;;;;;;;;3.10;99.30;;;;;;4936699;28;20023;-69
2023/01/30 03:19:40;;;;;;;19.55;9.32;;;3.20;99.10;;;;;;4948666;28;20294;-69
2023/01/30 03:22:06;;;;;;;18.38;10.20;;;3.20;99.30;;;;;;4954278;28;20515;-69
2023/01/30 03:24:32;;;;;;;18.95;9.88;;;3.20;99.40;;;;;;4955791;28;20031;-69
2023/01/30 03:27:04;;;;;;;20.58;10.23;;;3.20;99.50;;;;;;4952380;28;20035;-68
2023/01/30 03:29:31;;;;;;;18.50;9.35;;;3.20;99.40;;;;;;4961808;28;20034;-68
2023/01/30 03:31:57;;;;;;;19.25;9.07;;;3.20;99.50;;;;;;4958482;28;20039;-69
2023/01/30 03:34:23;;;;;;;18.08;9.43;;;3.30;99.30;;;;;;4954565;28;20730;-68
2023/01/30 03:36:48;;;;;;;16.55;8.68;;;3.30;99.20;;;;;;4956114;28;20034;-68
2023/01/30 03:39:15;;;;;;;18.05;9.02;;;3.30;99.10;;;;;;4939041;28;20039;-69
2023/01/30 03:41:41;;;;;;;17.05;8.85;;;3.40;99.20;;;;;;4948144;28;20054;-68
2023/01/30 03:44:07;;;;;;;17.83;9.05;;;3.40;98.80;;;;;;4946931;28;20039;-68
2023/01/30 03:46:33;;;;;;;20.50;10.50;;;3.50;99.00;;;;;;4954604;28;20062;-69
2023/01/30 03:48:59;;;;;;;18.42;9.45;;;3.50;99.50;;;;;;4953368;28;20130;-69
2023/01/30 03:51:25;;;;;;;17.88;8.90;;;3.60;99.60;;;;;;4947407;28;20463;-69
2023/01/30 03:53:51;;;;;;;19.60;10.25;;;3.70;99.10;;;;;;4946298;28;20035;-68
2023/01/30 03:56:17;;;;;;;20.15;8.85;;;3.60;98.70;;;;;;4953400;28;20054;-69
2023/01/30 03:58:43;;;;;;;18.17;9.00;;;3.60;98.90;;;;;;4955713;28;20086;-69
2023/01/30 04:01:18;;;;;;;17.53;9.13;;;3.50;98.60;;;;;;4948985;28;20023;-69
2023/01/30 04:03:45;;;;;;;22.23;9.35;;;3.50;99.30;;;;;;4953069;28;20042;-69
2023/01/30 04:06:11;;;;;;;19.00;9.57;;;3.60;99.10;;;;;;4947820;28;20043;-68
2023/01/30 04:08:37;;;;;;;19.23;9.00;;;3.60;99.00;;;;;;4952091;28;20138;-68
2023/01/30 04:11:08;;;;;;;17.88;8.57;;;3.60;99.00;;;;;;4949020;28;20043;-68
2023/01/30 04:13:34;;;;;;;19.02;9.57;;;3.70;98.90;;;;;;4956149;28;20249;-68
2023/01/30 04:16:21;;;;;;;18.95;9.52;;;3.70;98.80;;;;;;4945710;28;20039;-68
2023/01/30 04:19:05;;;;;;;17.13;9.20;;;3.60;99.10;;;;;;4951356;28;20098;-68
2023/01/30 04:21:32;;;;;;;19.85;8.95;;;3.70;98.90;;;;;;4963262;28;20779;-68
2023/01/30 04:23:58;;;;;;;19.20;9.68;;;3.70;98.90;;;;;;4935135;28;20056;-69
2023/01/30 04:26:24;;;;;;;17.35;9.77;;;3.60;99.00;;;;;;4940479;28;20737;-68
2023/01/30 04:28:50;;;;;;;18.13;9.38;;;3.60;99.10;;;;;;4945849;28;20042;-68
2023/01/30 04:31:17;;;;;;;16.30;8.93;;;3.70;99.20;;;;;;4929819;28;20094;-69
2023/01/30 04:33:51;;;;;;;16.50;8.63;;;3.80;98.90;;;;;;4956379;28;20094;-69
2023/01/30 04:36:17;;;;;;;17.52;8.85;;;3.80;99.30;;;;;;4942323;28;20034;-69
2023/01/30 04:38:45;;;;;;;16.40;9.35;;;3.90;99.00;;;;;;4954148;28;20030;-69
2023/01/30 04:41:11;;;;;;;17.45;9.45;;;3.80;98.80;;;;;;4957645;28;20042;-69
2023/01/30 04:43:40;;;;;;;18.20;10.02;;;3.80;98.90;;;;;;4952240;28;20035;-69
2023/01/30 04:46:24;;;;;;;15.55;8.75;;;3.80;99.00;;;;;;4957056;28;20089;-69
2023/01/30 04:48:50;;;;;;;19.13;10.15;;;3.70;99.30;;;;;;4941692;28;20383;-69
2023/01/30 04:51:16;;;;;;;25.65;11.68;;;3.60;99.70;;;;;;4945329;28;20109;-69
2023/01/30 04:53:42;;;;;;;20.60;11.60;;;3.60;99.90;;;;;;4945112;28;20141;-69
2023/01/30 04:56:08;;;;;;;24.75;14.25;;;3.70;99.90;;;;;;4958162;28;20035;-69
2023/01/30 04:58:34;;;;;;;21.23;11.82;;;3.80;99.80;;;;;;4954603;28;20526;-69
2023/01/30 05:01:33;;;;;;;18.92;10.55;;;3.90;99.50;;;;;;4946602;28;20058;-69
2023/01/30 05:04:00;;;;;;;20.45;10.15;;;4.00;99.60;;;;;;4952292;28;20042;-69
2023/01/30 05:06:27;;;;;;;22.05;12.00;;;4.00;99.60;;;;;;4951729;28;20118;-69
2023/01/30 05:08:54;;;;;;;25.55;15.23;;;4.10;99.90;;;;;;4951363;28;20070;-69
2023/01/30 05:11:22;;;;;;;32.72;16.65;;;3.90;99.90;;;;;;4945716;28;20035;-69
2023/01/30 05:13:48;;;;;;;73.68;26.77;;;3.90;99.90;;;;;;4954316;28;20039;-69
2023/01/30 05:16:14;;;;;;;48.28;20.00;;;3.70;99.90;;;;;;4956570;28;20101;-69
2023/01/30 05:18:41;;;;;;;56.38;23.08;;;3.70;99.90;;;;;;4957240;28;20045;-69
2023/01/30 05:21:11;;;;;;;23.13;11.02;;;3.60;99.90;;;;;;4957073;28;20039;-69
2023/01/30 05:23:37;;;;;;;24.17;11.10;;;3.60;99.90;;;;;;4955638;28;20035;-69
2023/01/30 05:26:04;;;;;;;24.88;12.30;;;3.50;99.90;;;;;;4958817;28;20038;-69
2023/01/30 05:28:30;;;;;;;22.70;11.07;;;3.60;99.90;;;;;;4955840;28;20042;-69
2023/01/30 05:31:10;;;;;;;27.63;12.02;;;3.70;99.90;;;;;;4955606;28;20100;-69
2023/01/30 05:33:37;;;;;;;24.48;12.30;;;3.60;99.90;;;;;;4946613;28;20506;-69
2023/01/30 05:36:04;;;;;;;38.25;17.75;;;3.50;99.90;;;;;;4956077;28;20486;-69
2023/01/30 05:38:30;;;;;;;46.25;18.60;;;3.60;99.90;;;;;;4956265;28;20043;-69
2023/01/30 05:41:00;;;;;;;25.85;11.02;;;3.60;99.90;;;;;;4956121;28;20035;-69
2023/01/30 05:43:27;;;;;;;30.38;14.45;;;3.50;99.90;;;;;;4955094;28;20053;-69
2023/01/30 05:45:53;;;;;;;37.08;15.98;;;3.50;99.90;;;;;;4955312;28;20338;-69
2023/01/30 05:48:20;;;;;;;41.50;17.38;;;3.60;99.90;;;;;;4955389;28;20042;-69
2023/01/30 05:50:46;;;;;;;25.17;11.68;;;3.70;99.90;;;;;;4951726;28;20035;-69
2023/01/30 05:53:12;;;;;;;27.30;13.20;;;3.60;99.90;;;;;;4955435;28;20026;-69
2023/01/30 05:55:38;;;;;;;30.08;12.85;;;3.50;99.90;;;;;;4963640;28;20050;-69
2023/01/30 05:58:04;;;;;;;30.30;15.52;;;3.60;99.90;;;;;;4968670;28;20048;-69
2023/01/30 06:00:29;;;;;;;24.08;12.77;;;3.60;99.90;;;;;;4963817;28;20070;-67
2023/01/30 06:02:55;;;;;;;29.00;12.25;;;3.60;99.90;;;;;;4960951;28;20059;-70
2023/01/30 06:05:21;;;;;;;25.48;12.48;;;3.40;99.90;;;;;;4959406;28;20042;-70
2023/01/30 06:07:47;;;;;;;28.02;12.88;;;3.40;99.90;;;;;;4960962;28;20034;-68
2023/01/30 06:10:12;;;;;;;27.05;13.20;;;3.60;99.90;;;;;;4950925;28;20042;-68
2023/01/30 06:12:38;;;;;;;31.38;13.25;;;3.60;99.90;;;;;;4946018;28;20035;-68
2023/01/30 06:15:05;;;;;;;46.45;21.08;;;3.70;99.90;;;;;;4951090;28;20550;-68
2023/01/30 06:17:30;;;;;;;24.73;11.40;;;3.90;99.90;;;;;;4957931;28;20154;-68
2023/01/30 06:19:56;;;;;;;21.95;11.27;;;4.00;99.90;;;;;;4959393;28;20034;-68
2023/01/30 06:22:22;;;;;;;27.92;13.10;;;3.90;99.90;;;;;;4958930;28;20117;-68
2023/01/30 06:24:48;;;;;;;29.17;12.85;;;3.90;99.90;;;;;;4958464;28;20043;-68
2023/01/30 06:27:13;;;;;;;27.73;13.10;;;3.90;99.90;;;;;;4966591;28;20117;-68
2023/01/30 06:29:39;;;;;;;26.60;12.18;;;3.80;99.90;;;;;;4968684;28;20844;-69
2023/01/30 06:32:05;;;;;;;24.33;11.38;;;4.00;99.90;;;;;;4959175;28;20050;-68
2023/01/30 06:34:31;;;;;;;20.90;10.75;;;4.10;99.90;;;;;;4952447;28;20047;-68
2023/01/30 06:36:56;;;;;;;20.08;9.95;;;4.20;99.90;;;;;;4954825;28;20030;-68
2023/01/30 06:39:22;;;;;;;22.40;10.63;;;4.20;99.90;;;;;;4956964;28;20389;-68
2023/01/30 06:41:48;;;;;;;17.25;8.90;;;4.20;99.90;;;;;;4954575;28;20062;-68
2023/01/30 06:44:14;;;;;;;19.75;9.73;;;4.20;99.90;;;;;;4966354;28;20101;-68
2023/01/30 06:46:40;;;;;;;20.13;8.48;;;4.30;99.90;;;;;;4960337;28;20039;-68
2023/01/30 06:49:05;;;;;;;21.35;9.38;;;4.40;99.90;;;;;;4957279;28;20049;-68
2023/01/30 06:51:31;;;;;;;18.40;8.60;;;4.50;99.90;;;;;;4960803;28;20041;-68
2023/01/30 06:53:57;;;;;;;18.85;9.68;;;4.70;99.90;;;;;;4960527;28;20038;-68
2023/01/30 06:56:22;;;;;;;15.82;7.78;;;4.80;99.90;;;;;;4960593;28;20031;-68
2023/01/30 06:58:48;;;;;;;11.98;5.68;;;4.80;99.90;;;;;;4958420;28;20027;-69
2023/01/30 07:01:14;;;;;;;10.63;5.25;;;4.80;99.90;;;;;;4955074;28;20062;-68
2023/01/30 07:03:40;;;;;;;18.40;7.13;;;4.90;99.90;;;;;;4968634;28;20060;-68
2023/01/30 07:06:05;;;;;;;14.43;6.50;;;5.00;99.90;;;;;;4963218;28;20680;-68
2023/01/30 07:08:31;;;;;;;9.40;5.00;;;5.00;99.90;;;;;;4966286;28;20026;-68
2023/01/30 07:10:57;;;;;;;10.90;5.35;;;5.10;99.90;;;;;;4954750;28;20109;-68
2023/01/30 07:13:22;;;;;;;9.25;5.57;;;5.30;99.90;;;;;;4954519;28;20049;-68
2023/01/30 07:15:49;;;;;;;7.85;4.22;;;5.40;99.90;;;;;;4949386;28;20042;-68
2023/01/30 07:18:15;;;;;;;7.38;4.72;;;5.50;99.90;;;;;;4949719;28;20047;-69
2023/01/30 07:20:41;;;;;;;8.18;4.40;;;5.60;99.90;;;;;;4961489;28;20057;-68
2023/01/30 07:23:07;;;;;;;14.52;5.90;;;5.60;99.90;;;;;;4953745;28;20634;-68
2023/01/30 07:25:32;;;;;;;18.73;8.40;;;5.70;99.90;;;;;;4962581;28;20161;-71
2023/01/30 07:28:00;;;;;;;6.47;4.35;;;5.70;99.90;;;;;;4960307;28;20039;-69
2023/01/30 07:30:28;;;;;;;10.10;5.43;;;5.70;99.90;;;;;;4961388;28;20607;-69
2023/01/30 07:32:56;;;;;;;15.38;7.65;;;5.80;99.90;;;;;;4953364;28;20051;-68
2023/01/30 07:35:24;;;;;;;12.18;6.28;;;5.80;99.90;;;;;;4963885;28;20872;-68
2023/01/30 07:37:50;;;;;;;9.30;5.20;;;5.90;99.90;;;;;;4954867;28;20027;-68
2023/01/30 07:40:18;;;;;;;6.32;4.55;;;5.90;99.90;;;;;;4946796;28;20042;-68
2023/01/30 07:42:58;;;;;;;10.00;5.32;;;5.90;99.90;;;;;;4956731;28;20123;-68
2023/01/30 07:45:27;;;;;;;7.82;4.60;;;5.90;99.90;;;;;;4960445;28;20611;-68
2023/01/30 07:47:53;;;;;;;7.53;4.15;;;6.00;99.90;;;;;;4954953;28;20043;-69
2023/01/30 07:50:18;;;;;;;8.30;4.85;;;6.00;99.90;;;;;;4952770;28;20043;-68
2023/01/30 07:52:44;;;;;;;10.18;4.90;;;6.00;99.90;;;;;;4953237;28;20042;-71
2023/01/30 07:55:10;;;;;;;7.88;4.80;;;5.90;99.90;;;;;;4962462;28;20046;-68
2023/01/30 07:57:36;;;;;;;9.13;4.88;;;5.90;99.90;;;;;;4956848;28;20042;-68
2023/01/30 08:00:03;;;;;;;6.63;4.30;;;6.00;99.90;;;;;;4953130;28;20031;-69
2023/01/30 08:02:34;;;;;;;8.60;5.30;;;6.00;99.90;;;;;;4956067;28;20035;-69
2023/01/30 08:05:00;;;;;;;8.45;5.03;;;6.00;99.90;;;;;;4948134;28;20279;-69
2023/01/30 08:07:25;;;;;;;10.77;4.78;;;6.00;99.90;;;;;;4959837;28;20043;-69
2023/01/30 08:09:51;;;;;;;8.82;5.35;;;5.90;99.90;;;;;;4959629;28;20042;-70
2023/01/30 08:12:17;;;;;;;13.20;6.40;;;5.90;99.90;;;;;;4966711;28;20070;-70
2023/01/30 08:14:43;;;;;;;11.85;5.90;;;5.80;99.90;;;;;;4962561;28;20045;-69
2023/01/30 08:17:08;;;;;;;11.75;5.00;;;5.80;99.90;;;;;;4961835;28;21632;-71
2023/01/30 08:19:34;;;;;;;15.02;6.63;;;5.90;99.90;;;;;;4953365;28;20801;-68
2023/01/30 08:22:00;;;;;;;8.02;4.32;;;6.00;99.90;;;;;;4964163;28;20037;-70
2023/01/30 08:24:26;;;;;;;7.43;4.35;;;5.90;99.90;;;;;;4962980;28;20565;-70
2023/01/30 08:26:51;;;;;;;8.10;4.70;;;6.00;99.90;;;;;;4959121;28;20045;-71
2023/01/30 08:29:17;;;;;;;4.50;2.72;;;5.90;99.90;;;;;;4955944;28;20042;-70
2023/01/30 08:31:43;;;;;;;4.25;2.20;;;5.90;99.90;;;;;;4960218;28;20061;-70
2023/01/30 08:34:09;;;;;;;6.10;3.10;;;6.10;99.90;;;;;;4966769;28;20031;-71
2023/01/30 08:36:34;;;;;;;6.38;3.65;;;6.20;99.90;;;;;;4955448;28;20035;-72
2023/01/30 08:39:00;;;;;;;4.15;2.42;;;6.30;99.90;;;;;;4969194;28;20057;-71
2023/01/30 08:41:27;;;;;;;6.80;4.80;;;6.40;99.90;;;;;;4965858;28;20383;-71
2023/01/30 08:43:53;;;;;;;6.28;3.55;;;6.30;99.90;;;;;;4967208;28;20043;-69
2023/01/30 08:46:20;;;;;;;12.18;6.20;;;6.40;99.90;;;;;;4961562;28;20083;-69
2023/01/30 08:48:47;;;;;;;6.57;4.05;;;6.50;99.90;;;;;;4964822;28;20094;-70
2023/01/30 08:51:13;;;;;;;7.75;4.72;;;6.50;99.90;;;;;;4958916;28;20054;-70
2023/01/30 08:53:39;;;;;;;6.45;4.53;;;6.30;99.90;;;;;;4967109;28;20117;-71
2023/01/30 08:56:05;;;;;;;14.32;10.07;;;6.50;99.90;;;;;;4960686;28;20033;-68
2023/01/30 08:58:31;;;;;;;4.60;3.20;;;6.60;99.90;;;;;;4965966;28;20118;-71
2023/01/30 09:00:57;;;;;;;8.00;4.15;;;6.60;99.90;;;;;;4963341;28;20039;-70
2023/01/30 09:03:22;;;;;;;6.30;3.47;;;6.70;99.90;;;;;;4962630;28;20035;-70
2023/01/30 09:05:55;;;;;;;11.88;6.50;;;6.80;99.90;;;;;;4958517;28;20122;-66
2023/01/30 09:08:21;;;;;;;10.05;5.43;;;7.00;99.90;;;;;;4970691;28;20181;-70
2023/01/30 09:10:46;;;;;;;6.65;4.57;;;7.10;99.90;;;;;;4963648;28;20034;-70
2023/01/30 09:13:12;;;;;;;6.43;2.75;;;7.20;99.90;;;;;;4958858;28;20375;-70
2023/01/30 09:15:41;;;;;;;6.82;2.42;;;7.30;99.90;;;;;;4959390;28;20092;-70
2023/01/30 09:18:07;;;;;;;5.90;2.17;;;7.40;99.90;;;;;;4964344;28;20117;-70
2023/01/30 09:20:33;;;;;;;7.25;1.83;;;7.50;99.90;;;;;;4964475;28;20052;-70
2023/01/30 09:23:00;;;;;;;3.75;1.90;;;7.60;99.60;;;;;;4963490;28;20027;-69
2023/01/30 09:25:26;;;;;;;5.22;1.90;;;7.60;99.20;;;;;;4964378;28;20034;-70
2023/01/30 09:27:52;;;;;;;4.22;1.20;;;7.70;98.80;;;;;;4959773;28;20045;-72
2023/01/30 09:30:18;;;;;;;4.28;1.15;;;7.60;98.40;;;;;;4966357;28;20033;-69
2023/01/30 09:32:44;;;;;;;6.40;1.58;;;7.60;98.40;;;;;;4955166;28;20492;-70
2023/01/30 09:35:10;;;;;;;8.38;2.47;;;7.70;98.10;;;;;;4960890;28;20041;-69
2023/01/30 09:37:36;;;;;;;6.65;1.02;;;7.80;97.30;;;;;;4960278;28;20146;-72
2023/01/30 09:40:02;;;;;;;9.80;2.05;;;7.80;97.20;;;;;;4962223;28;20037;-71
2023/01/30 09:43:05;;;;;;;4.82;1.15;;;7.80;95.90;;;;;;4963786;28;20113;-69
2023/01/30 09:46:10;;;;;;;3.97;0.75;;;7.70;96.10;;;;;;4960012;28;20085;-69
2023/01/30 09:48:45;;;;;;;8.50;0.75;;;7.70;95.80;;;;;;4959797;28;20049;-71
2023/01/30 09:51:53;;;;;;;9.82;1.17;;;7.60;95.90;;;;;;4970459;28;20039;-70
2023/01/30 09:54:23;;;;;;;6.70;0.90;;;7.70;95.80;;;;;;4884371;29;20040;-70
2023/01/30 09:57:26;;;;;;;8.90;2.00;;;7.70;95.90;;;;;;4949318;28;20434;-72
2023/01/30 09:59:56;;;;;;;4.68;0.85;;;7.70;95.50;;;;;;4955961;28;20026;-70
2023/01/30 10:02:33;;;;;;;5.75;1.23;;;7.70;95.00;;;;;;4960944;28;20762;-71
2023/01/30 10:05:01;;;;;;;6.65;1.38;;;7.70;95.20;;;;;;4967638;28;20058;-70
2023/01/30 10:07:57;;;;;;;5.55;1.20;;;7.70;95.40;;;;;;4959235;28;20901;-71
2023/01/30 10:10:46;;;;;;;7.15;1.05;;;8.70;93.80;;;;;;4954823;28;20035;-70
2023/01/30 10:13:15;;;;;;;6.32;1.45;;;10.20;90.70;;;;;;4959524;28;20595;-71
2023/01/30 10:15:47;;;;;;;7.55;1.33;;;10.70;85.60;;;;;;4953402;28;20047;-71
2023/01/30 10:18:27;;;;;;;6.13;1.17;;;10.20;86.20;;;;;;4958077;28;20514;-70
2023/01/30 10:21:10;;;;;;;13.23;1.48;;;9.70;89.30;;;;;;4959566;28;20042;-69
2023/01/30 10:23:57;;;;;;;7.55;1.50;;;9.40;90.50;;;;;;4955963;28;20035;-69
2023/01/30 10:26:26;;;;;;;10.43;1.73;;;9.00;90.50;;;;;;4951531;28;20035;-70
2023/01/30 10:28:52;;;;;;;10.05;2.80;;;9.10;91.50;;;;;;4956197;28;20034;-71
2023/01/30 10:31:20;;;;;;;11.00;2.63;;;10.10;90.30;;;;;;4953863;28;20529;-66
2023/01/30 10:33:59;;;;;;;8.40;2.47;;;11.30;84.30;;;;;;4960257;28;20402;-70
2023/01/30 10:36:49;;;;;;;10.10;2.00;;;13.00;77.20;;;;;;4958591;28;20030;-71
2023/01/30 10:39:27;;;;;;;9.93;2.92;;;14.40;70.30;;;;;;4953180;28;20035;-71
2023/01/30 10:42:11;;;;;;;7.78;2.55;;;14.20;69.00;;;;;;4959421;28;20491;-72
2023/01/30 10:44:42;;;;;;;14.18;2.80;;;13.60;70.00;;;;;;4950078;28;20086;-71
2023/01/30 10:47:19;;;;;;;5.93;1.38;;;12.40;73.70;;;;;;4958356;28;20479;-71
2023/01/30 10:49:53;;;;;;;7.30;1.50;;;11.50;77.80;;;;;;4955254;28;20048;-71
2023/01/30 10:52:28;;;;;;;10.13;1.98;;;10.70;80.90;;;;;;4954754;28;20065;-70
2023/01/30 10:54:59;;;;;;;7.50;1.20;;;10.20;82.50;;;;;;4957069;28;20041;-70
2023/01/30 10:57:59;;;;;;;11.75;1.67;;;9.70;86.30;;;;;;4949859;28;20062;-73
2023/01/30 11:00:58;;;;;;;13.20;1.73;;;9.50;87.60;;;;;;4953997;28;20109;-72
2023/01/30 11:03:36;;;;;;;9.68;1.65;;;9.20;89.50;;;;;;4959514;28;20030;-70
2023/01/30 11:06:09;;;;;;;15.95;2.58;;;9.00;90.20;;;;;;4961050;28;20035;-68
2023/01/30 11:08:35;;;;;;;5.32;1.08;;;8.80;90.80;;;;;;4953522;28;20117;-69
2023/01/30 11:11:24;;;;;;;11.10;1.60;;;8.70;91.50;;;;;;4960218;28;20035;-70
2023/01/30 11:13:49;;;;;;;11.40;1.73;;;8.70;91.80;;;;;;4957112;28;20031;-68
2023/01/30 11:16:18;;;;;;;8.88;1.67;;;8.60;91.90;;;;;;4964273;28;20042;-69
2023/01/30 11:18:49;;;;;;;13.80;2.13;;;8.70;92.40;;;;;;4966626;28;20034;-69
2023/01/30 11:21:36;;;;;;;10.35;1.85;;;9.00;91.40;;;;;;4961242;28;20034;-68
2023/01/30 11:24:10;;;;;;;;;;;9.00;91.00;;;;;;4957879;28;20050;-70
2023/01/30 11:26:36;;;;;;;8.15;2.00;;;9.00;91.10;;;;;;4963013;28;19924;-69
2023/01/30 11:29:14;;;;;;;10.57;1.92;;;8.90;91.10;;;;;;4963905;28;20043;-68
2023/01/30 11:31:40;;;;;;;9.88;1.55;;;8.70;91.30;;;;;;4959172;28;20038;-69
2023/01/30 11:34:13;;;;;;;20.25;1.90;;;8.70;91.60;;;;;;4958596;28;20049;-68
2023/01/30 11:36:40;;;;;;;6.60;1.73;;;8.80;91.70;;;;;;4955651;28;20118;-69
2023/01/30 11:39:17;;;;;;;13.27;2.17;;;8.60;91.50;;;;;;4960493;28;20546;-70
2023/01/30 11:41:55;;;;;;;13.70;2.10;;;8.70;91.80;;;;;;4950862;28;20031;-69
2023/01/30 11:44:36;;;;;;;13.73;1.63;;;8.80;91.50;;;;;;4957239;28;20648;-69
2023/01/30 11:47:33;;;;;;;10.40;1.80;;;8.80;91.60;;;;;;4970472;28;20698;-68
2023/01/30 11:50:01;;;;;;;7.57;1.60;;;8.90;91.00;;;;;;4945624;28;20155;-67
2023/01/30 11:52:36;;;;;;;13.77;2.00;;;8.80;91.20;;;;;;4950691;28;20113;-67
2023/01/30 11:55:07;;;;;;;14.63;1.80;;;8.80;90.80;;;;;;4964805;28;20049;-67
2023/01/30 11:57:46;;;;;;;9.80;1.90;;;8.80;89.80;;;;;;4961020;28;20039;-68
2023/01/30 12:00:23;;;;;;;11.10;1.90;;;8.80;89.60;;;;;;4959772;28;20472;-68
2023/01/30 12:02:51;;;;;;;11.43;1.80;;;8.70;88.10;;;;;;4968249;28;20034;-65
2023/01/30 12:05:21;;;;;;;7.88;2.60;;;8.70;89.40;;;;;;4958838;28;20779;-66
2023/01/30 12:07:50;;;;;;;12.63;1.63;;;8.70;89.10;;;;;;4966625;28;20035;-67
2023/01/30 12:10:30;;;;;;;17.55;5.03;;;8.60;88.90;;;;;;4959647;28;20039;-67
2023/01/30 12:13:19;;;;;;;12.65;1.98;;;8.60;88.70;;;;;;4965772;28;20037;-67
2023/01/30 12:15:48;;;;;;;9.80;1.60;;;8.70;90.00;;;;;;4953504;28;20062;-73
2023/01/30 12:18:30;;;;;;;12.13;2.03;;;8.80;90.50;;;;;;4969785;28;20047;-66
2023/01/30 12:20:59;;;;;;;9.60;1.50;;;8.90;88.40;;;;;;4958038;28;20147;-64
2023/01/30 12:23:56;;;;;;;8.85;1.58;;;8.90;87.40;;;;;;4956104;28;20031;-66
2023/01/30 12:26:45;;;;;;;8.82;1.95;;;9.00;88.00;;;;;;4959623;28;20038;-66
2023/01/30 12:29:26;;;;;;;14.02;1.63;;;9.20;86.30;;;;;;4956036;28;20041;-67
2023/01/30 12:32:20;;;;;;;9.98;2.22;;;9.40;86.80;;;;;;4959632;28;20505;-67
2023/01/30 12:34:47;;;;;;;11.98;1.90;;;9.60;86.50;;;;;;4957825;28;20051;-68
2023/01/30 12:37:37;;;;;;;11.32;2.17;;;9.70;84.00;;;;;;4960624;28;20035;-65
2023/01/30 12:40:41;;;;;;;7.82;2.10;;;9.80;84.00;;;;;;4953089;28;20039;-66
2023/01/30 12:43:49;;;;;;;15.10;4.55;;;9.80;83.70;;;;;;4948827;28;20051;-66
2023/01/30 12:46:29;;;;;;;13.32;4.28;;;9.70;84.00;;;;;;4958812;28;20062;-65
2023/01/30 12:49:18;;;;;;;11.82;2.95;;;9.70;84.80;;;;;;4961616;28;20530;-67
2023/01/30 12:51:49;;;;;;;10.55;2.13;;;9.70;85.70;;;;;;4954485;28;20102;-66
2023/01/30 12:54:33;;;;;;;7.30;1.80;;;9.80;84.30;;;;;;4949996;28;20053;-66
2023/01/30 12:57:19;;;;;;;7.88;1.80;;;9.80;83.90;;;;;;4955808;28;20684;-67
2023/01/30 12:59:51;;;;;;;8.98;1.50;;;9.80;83.90;;;;;;4956320;28;20046;-67
2023/01/30 13:02:38;;;;;;;8.55;2.33;;;9.90;84.00;;;;;;4948855;28;20038;-68
2023/01/30 13:05:22;;;;;;;11.98;2.33;;;9.80;84.00;;;;;;4955092;28;20035;-66
2023/01/30 13:08:08;;;;;;;21.20;6.03;;;9.70;83.50;;;;;;4956958;28;20458;-66
2023/01/30 13:10:58;;;;;;;13.63;3.45;;;9.50;84.70;;;;;;4952811;28;20089;-66
2023/01/30 13:13:24;;;;;;;11.88;2.38;;;9.40;86.10;;;;;;4960738;28;20043;-66
2023/01/30 13:16:03;;;;;;;9.82;3.83;;;9.30;86.80;;;;;;4964499;28;20034;-66